createdAt,value
2022-10-24T00:02:39.741Z,29.82
2022-10-24T00:05:10.983Z,29.87
2022-10-24T00:07:42.231Z,29.88
2022-10-24T00:10:14.675Z,29.85
2022-10-24T00:12:45.919Z,29.71
2022-10-24T00:15:18.194Z,29.61
2022-10-24T00:17:49.134Z,29.60
2022-10-24T00:20:20.048Z,29.66
2022-10-24T00:22:50.924Z,29.64
2022-10-24T00:25:21.938Z,29.73
2022-10-24T00:27:52.860Z,29.58
2022-10-24T00:30:23.743Z,29.44
2022-10-24T00:35:59.813Z,29.70
2022-10-24T00:38:30.707Z,29.78
2022-10-24T00:41:01.688Z,29.73
2022-10-24T00:43:32.768Z,29.71
2022-10-24T00:46:04.994Z,29.66
2022-10-24T00:48:42.768Z,29.86
2022-10-24T00:51:24.833Z,30.27
2022-10-24T00:54:07.141Z,30.11
2022-10-24T00:56:47.747Z,30.11
2022-10-24T00:59:20.929Z,30.15
2022-10-24T01:01:52.130Z,30.31
2022-10-24T01:04:22.962Z,30.45
2022-10-24T01:07:20.719Z,30.52
2022-10-24T01:10:14.512Z,30.51
2022-10-24T01:13:18.472Z,30.55
2022-10-24T01:16:12.201Z,30.62
2022-10-24T01:18:58.455Z,30.60
2022-10-24T01:21:39.580Z,30.57
2022-10-24T01:24:33.708Z,30.66
2022-10-24T01:27:33.186Z,30.58
2022-10-24T01:30:17.054Z,30.53
2022-10-24T01:32:56.740Z,30.67
2022-10-24T01:35:38.491Z,30.73
2022-10-24T01:38:22.181Z,30.56
2022-10-24T01:41:00.115Z,30.54
2022-10-24T01:43:38.569Z,30.75
2022-10-24T01:46:16.581Z,30.57
2022-10-24T01:49:02.748Z,30.58
2022-10-24T01:51:35.939Z,30.54
2022-10-24T01:54:07.399Z,30.52
2022-10-24T01:56:38.156Z,30.56
2022-10-24T01:59:12.049Z,30.58
2022-10-24T02:01:43.093Z,30.61
2022-10-24T02:04:14.547Z,30.61
2022-10-24T02:06:48.111Z,30.67
2022-10-24T02:09:22.255Z,30.66
2022-10-24T02:11:55.456Z,30.70
2022-10-24T02:14:37.854Z,30.72
2022-10-24T02:17:09.303Z,30.72
2022-10-24T02:19:41.222Z,30.76
2022-10-24T02:22:20.864Z,30.78
2022-10-24T02:25:17.258Z,30.74
2022-10-24T02:28:00.312Z,30.74
2022-10-24T02:30:33.176Z,30.75
2022-10-24T02:33:04.567Z,30.77
2022-10-24T02:35:39.104Z,30.84
2022-10-24T02:38:16.255Z,30.95
2022-10-24T02:40:49.077Z,30.95
2022-10-24T02:43:22.121Z,31.01
2022-10-24T02:45:56.743Z,31.02
2022-10-24T02:48:33.239Z,31.02
2022-10-24T02:51:05.108Z,31.06
2022-10-24T02:53:39.457Z,30.99
2022-10-24T02:56:10.775Z,31.01
2022-10-24T02:58:41.192Z,31.08
2022-10-24T03:01:12.236Z,31.13
2022-10-24T03:03:43.234Z,31.19
2022-10-24T03:06:14.497Z,31.19
2022-10-24T03:08:45.195Z,31.14
2022-10-24T03:11:16.135Z,31.16
2022-10-24T03:13:47.055Z,31.15
2022-10-24T03:16:18.278Z,31.14
2022-10-24T03:18:49.371Z,31.18
2022-10-24T03:21:20.329Z,31.19
2022-10-24T03:23:51.219Z,31.24
2022-10-24T03:26:21.976Z,31.24
2022-10-24T03:28:52.852Z,31.34
2022-10-24T03:31:23.610Z,31.27
2022-10-24T03:33:54.438Z,31.26
2022-10-24T03:36:25.317Z,31.27
2022-10-24T03:38:56.327Z,31.34
2022-10-24T03:41:27.267Z,31.38
2022-10-24T03:43:58.130Z,31.46
2022-10-24T03:46:28.958Z,31.49
2022-10-24T03:48:59.812Z,31.46
2022-10-24T03:51:30.590Z,31.44
2022-10-24T03:54:01.687Z,31.46
2022-10-24T03:56:34.763Z,31.44
2022-10-24T03:59:05.592Z,31.49
2022-10-24T04:01:36.615Z,31.47
2022-10-24T04:04:07.628Z,31.49
2022-10-24T04:06:38.752Z,31.53
2022-10-24T04:09:10.084Z,31.53
2022-10-24T04:11:41.062Z,31.55
2022-10-24T04:14:12.294Z,31.58
2022-10-24T04:16:43.543Z,31.57
2022-10-24T04:19:14.399Z,31.68
2022-10-24T04:21:45.333Z,31.70
2022-10-24T04:24:16.750Z,31.70
2022-10-24T04:26:47.789Z,31.72
2022-10-24T04:29:19.125Z,31.78
2022-10-24T04:31:50.056Z,31.86
2022-10-24T04:34:21.109Z,31.82
2022-10-24T04:36:51.636Z,31.89
2022-10-24T04:39:22.627Z,31.96
2022-10-24T04:41:53.062Z,31.88
2022-10-24T04:44:23.826Z,31.97
2022-10-24T04:46:54.963Z,31.96
2022-10-24T04:49:25.774Z,31.95
2022-10-24T04:51:56.732Z,32.07
2022-10-24T04:54:27.406Z,32.06
2022-10-24T04:56:58.267Z,32.14
2022-10-24T04:59:29.080Z,32.23
2022-10-24T05:01:59.947Z,32.22
2022-10-24T05:04:30.766Z,32.29
2022-10-24T05:07:01.386Z,32.25
2022-10-24T05:09:32.242Z,32.30
2022-10-24T05:12:03.098Z,32.27
2022-10-24T05:14:34.037Z,32.44
2022-10-24T05:17:04.900Z,32.29
2022-10-24T05:19:35.842Z,32.32
2022-10-24T05:22:08.641Z,32.36
2022-10-24T05:24:41.808Z,32.38
2022-10-24T05:27:12.576Z,32.36
2022-10-24T05:29:43.648Z,32.41
2022-10-24T05:32:14.440Z,32.37
2022-10-24T05:34:45.989Z,32.47
2022-10-24T05:37:16.973Z,32.40
2022-10-24T05:39:47.993Z,32.36
2022-10-24T05:42:19.561Z,32.45
2022-10-24T05:44:50.649Z,32.48
2022-10-24T05:47:23.658Z,32.43
2022-10-24T05:49:56.814Z,32.49
2022-10-24T05:52:27.700Z,32.54
2022-10-24T05:55:08.478Z,32.45
2022-10-24T05:57:41.150Z,32.50
2022-10-24T06:00:15.406Z,32.49
2022-10-24T06:05:23.180Z,32.56
2022-10-24T06:07:54.086Z,32.50
2022-10-24T06:10:25.061Z,32.49
2022-10-24T06:12:56.035Z,32.58
2022-10-24T06:15:26.789Z,32.53
2022-10-24T06:17:57.725Z,32.50
2022-10-24T06:20:28.735Z,32.44
2022-10-24T06:22:59.675Z,32.46
2022-10-24T06:25:30.560Z,32.44
2022-10-24T06:28:01.659Z,32.38
2022-10-24T06:30:32.535Z,32.48
2022-10-24T06:33:04.071Z,32.57
2022-10-24T06:35:35.110Z,32.56
2022-10-24T06:38:06.083Z,32.46
2022-10-24T06:40:37.543Z,32.49
2022-10-24T06:43:08.445Z,32.52
2022-10-24T06:45:41.544Z,32.56
2022-10-24T06:48:13.256Z,32.48
2022-10-24T06:50:44.254Z,32.58
2022-10-24T06:53:15.177Z,32.54
2022-10-24T06:55:46.122Z,32.43
2022-10-24T06:58:16.955Z,32.42
2022-10-24T07:00:47.740Z,32.37
2022-10-24T07:03:19.451Z,32.44
2022-10-24T07:05:50.217Z,32.40
2022-10-24T07:08:21.222Z,32.30
2022-10-24T07:10:52.072Z,32.35
2022-10-24T07:13:22.939Z,32.32
2022-10-24T07:15:56.987Z,32.24
2022-10-24T07:18:28.169Z,32.27
2022-10-24T07:21:03.784Z,32.25
2022-10-24T07:23:34.925Z,32.37
2022-10-24T07:26:13.671Z,32.35
2022-10-24T07:28:47.306Z,32.33
2022-10-24T07:31:20.762Z,32.30
2022-10-24T07:33:52.342Z,32.26
2022-10-24T07:36:25.539Z,32.24
2022-10-24T07:38:59.438Z,32.22
2022-10-24T07:41:33.091Z,32.32
2022-10-24T07:44:07.103Z,32.25
2022-10-24T07:46:38.038Z,32.22
2022-10-24T07:49:08.974Z,32.26
2022-10-24T07:51:39.886Z,32.20
2022-10-24T07:54:11.347Z,32.26
2022-10-24T07:56:41.783Z,32.23
2022-10-24T07:59:29.797Z,32.27
2022-10-24T08:02:03.536Z,32.31
2022-10-24T08:04:34.413Z,32.19
2022-10-24T08:07:05.243Z,32.31
2022-10-24T08:09:40.014Z,32.22
2022-10-24T08:12:11.083Z,32.16
2022-10-24T08:14:42.392Z,32.23
2022-10-24T08:17:13.961Z,32.33
2022-10-24T08:19:44.915Z,32.26
2022-10-24T08:22:15.916Z,32.24
2022-10-24T08:24:47.637Z,32.32
2022-10-24T08:27:18.551Z,32.28
2022-10-24T08:29:49.622Z,32.31
2022-10-24T08:32:20.432Z,32.30
2022-10-24T08:34:51.502Z,32.23
2022-10-24T08:37:22.304Z,32.37
2022-10-24T08:39:53.203Z,32.36
2022-10-24T08:42:25.290Z,32.30
2022-10-24T08:44:56.591Z,32.23
2022-10-24T08:47:43.269Z,32.19
2022-10-24T08:50:27.387Z,32.18
2022-10-24T08:53:04.574Z,32.24
2022-10-24T08:55:56.504Z,32.20
2022-10-24T08:58:33.052Z,32.18
2022-10-24T09:01:09.600Z,32.14
2022-10-24T09:03:56.470Z,32.14
2022-10-24T09:06:34.824Z,32.12
2022-10-24T09:09:29.728Z,32.27
2022-10-24T09:12:09.855Z,32.18
2022-10-24T09:14:42.287Z,32.20
2022-10-24T09:17:34.011Z,32.14
2022-10-24T09:20:31.709Z,32.18
2022-10-24T09:23:07.347Z,32.11
2022-10-24T09:25:41.260Z,32.17
2022-10-24T09:28:15.235Z,32.16
2022-10-24T09:30:46.275Z,32.15
2022-10-24T09:33:33.774Z,32.20
2022-10-24T09:36:07.707Z,32.13
2022-10-24T09:38:41.029Z,32.09
2022-10-24T09:41:22.311Z,32.18
2022-10-24T09:43:58.717Z,32.16
2022-10-24T09:46:50.783Z,32.14
2022-10-24T09:49:29.033Z,32.10
2022-10-24T09:52:19.688Z,32.16
2022-10-24T09:55:06.067Z,32.16
2022-10-24T09:57:44.252Z,32.33
2022-10-24T10:00:38.850Z,32.22
2022-10-24T10:03:24.113Z,32.32
2022-10-24T10:06:01.155Z,32.23
2022-10-24T10:08:35.537Z,32.18
2022-10-24T10:11:12.692Z,32.14
2022-10-24T10:13:55.718Z,32.13
2022-10-24T10:16:32.278Z,32.13
2022-10-24T10:19:22.690Z,32.12
2022-10-24T10:22:04.753Z,32.14
2022-10-24T10:24:48.900Z,32.12
2022-10-24T10:27:39.500Z,32.08
2022-10-24T10:30:17.557Z,32.15
2022-10-24T10:33:22.830Z,32.08
2022-10-24T10:36:22.975Z,32.01
2022-10-24T10:39:21.952Z,32.11
2022-10-24T10:42:01.418Z,32.20
2022-10-24T10:44:32.520Z,32.18
2022-10-24T10:47:26.746Z,32.15
2022-10-24T10:50:01.351Z,32.15
2022-10-24T10:52:51.484Z,32.07
2022-10-24T10:55:29.939Z,32.08
2022-10-24T10:58:10.974Z,32.06
2022-10-24T11:00:49.723Z,32.06
2022-10-24T11:03:25.546Z,32.09
2022-10-24T11:06:09.455Z,32.00
2022-10-24T11:08:45.631Z,32.06
2022-10-24T11:11:25.366Z,32.10
2022-10-24T11:14:19.406Z,31.96
2022-10-24T11:16:50.994Z,32.07
2022-10-24T11:19:31.301Z,32.03
2022-10-24T11:22:06.598Z,31.99
2022-10-24T11:24:50.343Z,31.89
2022-10-24T11:27:29.345Z,31.88
2022-10-24T11:30:04.224Z,31.96
2022-10-24T11:32:58.066Z,31.88
2022-10-24T11:35:37.463Z,31.85
2022-10-24T11:38:19.440Z,31.81
2022-10-24T11:40:58.633Z,31.83
2022-10-24T11:43:44.389Z,31.87
2022-10-24T11:46:23.504Z,31.89
2022-10-24T11:49:14.876Z,31.82
2022-10-24T11:52:08.029Z,31.78
2022-10-24T11:54:56.186Z,31.79
2022-10-24T11:57:31.265Z,31.86
2022-10-24T12:00:02.714Z,31.95
2022-10-24T12:03:11.140Z,31.93
2022-10-24T12:05:44.888Z,31.93
2022-10-24T12:08:31.717Z,32.00
2022-10-24T12:11:41.384Z,31.89
2022-10-24T12:14:48.227Z,31.90
2022-10-24T12:17:19.791Z,31.84
2022-10-24T12:19:53.775Z,31.87
2022-10-24T12:22:32.377Z,31.84
2022-10-24T12:25:11.811Z,31.87
2022-10-24T12:27:44.806Z,31.76
2022-10-24T12:30:15.686Z,31.72
2022-10-24T12:32:53.812Z,31.74
2022-10-24T12:35:31.271Z,31.74
2022-10-24T12:39:48.258Z,31.79
2022-10-24T12:42:27.767Z,31.70
2022-10-24T12:45:04.641Z,31.71
2022-10-24T12:47:40.538Z,31.74
2022-10-24T12:50:27.166Z,31.70
2022-10-24T12:53:00.914Z,31.69
2022-10-24T12:55:41.348Z,31.72
2022-10-24T12:58:31.255Z,31.70
2022-10-24T13:01:12.803Z,31.66
2022-10-24T13:04:23.380Z,31.75
2022-10-24T13:07:02.660Z,31.82
2022-10-24T13:09:59.167Z,31.70
2022-10-24T13:12:57.906Z,31.78
2022-10-24T13:15:37.340Z,31.66
2022-10-24T13:18:36.351Z,31.80
2022-10-24T13:24:15.869Z,31.87
2022-10-24T13:26:53.960Z,31.85
2022-10-24T13:29:27.336Z,31.83
2022-10-24T13:32:20.794Z,31.88
2022-10-24T13:34:57.563Z,31.84
2022-10-24T13:37:53.541Z,31.87
2022-10-24T13:40:36.541Z,31.89
2022-10-24T13:43:17.219Z,31.86
2022-10-24T13:46:13.346Z,31.91
2022-10-24T13:48:50.812Z,31.78
2022-10-24T13:51:43.911Z,31.87
2022-10-24T13:54:24.504Z,31.78
2022-10-24T13:56:58.357Z,31.73
2022-10-24T13:59:39.927Z,31.85
2022-10-24T14:02:24.411Z,31.70
2022-10-24T14:04:58.323Z,31.65
2022-10-24T14:07:32.995Z,31.65
2022-10-24T14:10:11.478Z,31.75
2022-10-24T14:12:43.832Z,31.64
2022-10-24T14:15:23.110Z,31.72
2022-10-24T14:18:00.220Z,31.78
2022-10-24T14:20:33.284Z,31.72
2022-10-24T14:23:04.588Z,31.74
2022-10-24T14:25:39.208Z,31.81
2022-10-24T14:28:19.383Z,31.86
2022-10-24T14:31:02.519Z,31.82
2022-10-24T14:33:46.458Z,31.90
2022-10-24T14:36:18.016Z,31.81
2022-10-24T14:38:50.283Z,31.78
2022-10-24T14:41:29.622Z,31.87
2022-10-24T14:44:01.856Z,31.80
2022-10-24T14:46:39.996Z,31.88
2022-10-24T14:49:36.005Z,31.93
2022-10-24T14:52:28.439Z,31.82
2022-10-24T14:55:09.268Z,31.81
2022-10-24T14:57:41.197Z,31.82
2022-10-24T15:00:25.033Z,31.80
2022-10-24T15:02:59.386Z,31.79
2022-10-24T15:05:34.099Z,31.72
2022-10-24T15:08:23.338Z,31.68
2022-10-24T15:11:08.894Z,31.70
2022-10-24T15:14:05.540Z,31.70
2022-10-24T15:16:41.440Z,31.68
2022-10-24T15:19:20.894Z,31.72
2022-10-24T15:21:52.042Z,31.70
2022-10-24T15:24:29.161Z,31.69
2022-10-24T15:27:27.937Z,31.94
2022-10-24T15:29:59.630Z,31.87
2022-10-24T15:32:30.616Z,31.85
2022-10-24T15:35:01.572Z,31.95
2022-10-24T15:37:33.182Z,31.88
2022-10-24T15:40:23.463Z,31.85
2022-10-24T15:42:54.449Z,31.82
2022-10-24T15:45:26.214Z,31.76
2022-10-24T15:47:57.055Z,31.70
2022-10-24T15:50:27.982Z,31.68
2022-10-24T15:53:01.326Z,31.68
2022-10-24T15:55:34.668Z,31.65
2022-10-24T15:58:08.321Z,31.64
2022-10-24T16:00:39.206Z,31.59
2022-10-24T16:03:14.769Z,31.63
2022-10-24T16:05:51.961Z,31.63
2022-10-24T16:08:23.461Z,31.62
2022-10-24T16:10:55.883Z,31.64
2022-10-24T16:13:26.811Z,31.61
2022-10-24T16:15:58.125Z,31.62
2022-10-24T16:18:28.861Z,31.64
2022-10-24T16:21:01.736Z,31.59
2022-10-24T16:23:32.578Z,31.62
2022-10-24T16:26:03.843Z,31.62
2022-10-24T16:28:34.627Z,31.57
2022-10-24T16:31:07.608Z,31.59
2022-10-24T16:33:38.622Z,31.58
2022-10-24T16:36:09.635Z,31.57
2022-10-24T16:38:40.491Z,31.59
2022-10-24T16:41:20.950Z,31.54
2022-10-24T16:43:52.353Z,31.56
2022-10-24T16:46:24.097Z,31.56
2022-10-24T16:48:55.287Z,31.53
2022-10-24T16:51:34.405Z,31.52
2022-10-24T16:54:06.099Z,31.55
2022-10-24T16:56:37.008Z,31.55
2022-10-24T16:59:10.309Z,31.52
2022-10-24T17:01:44.026Z,31.53
2022-10-24T17:04:14.883Z,31.54
2022-10-24T17:06:45.842Z,31.50
2022-10-24T17:09:16.965Z,31.52
2022-10-24T17:11:47.934Z,31.53
2022-10-24T17:14:18.938Z,31.53
2022-10-24T17:16:49.741Z,31.51
2022-10-24T17:19:20.582Z,31.48
2022-10-24T17:21:53.503Z,31.51
2022-10-24T17:24:28.227Z,31.48
2022-10-24T17:26:59.461Z,31.47
2022-10-24T17:29:31.719Z,31.49
2022-10-24T17:32:03.399Z,31.49
2022-10-24T17:34:35.347Z,31.47
2022-10-24T17:37:43.672Z,31.47
2022-10-24T17:40:24.598Z,31.49
2022-10-24T17:42:55.687Z,31.49
2022-10-24T17:45:27.768Z,31.47
2022-10-24T17:47:58.571Z,31.50
2022-10-24T17:50:29.547Z,31.47
2022-10-24T17:53:00.287Z,31.43
2022-10-24T17:55:45.789Z,31.48
2022-10-24T17:58:18.700Z,31.47
2022-10-24T18:00:49.889Z,31.43
2022-10-24T18:03:22.197Z,31.43
2022-10-24T18:05:53.068Z,31.46
2022-10-24T18:08:23.779Z,31.46
2022-10-24T18:10:54.592Z,31.42
2022-10-24T18:13:25.573Z,31.45
2022-10-24T18:15:56.376Z,31.44
2022-10-24T18:18:27.148Z,31.41
2022-10-24T18:21:28.391Z,31.41
2022-10-24T18:24:00.176Z,31.42
2022-10-24T18:26:31.327Z,31.42
2022-10-24T18:29:01.770Z,31.42
2022-10-24T18:31:33.833Z,31.44
2022-10-24T18:34:08.580Z,31.44
2022-10-24T18:36:39.942Z,31.43
2022-10-24T18:39:10.842Z,31.43
2022-10-24T18:41:47.014Z,31.41
2022-10-24T18:44:25.865Z,31.43
2022-10-24T18:46:59.395Z,31.40
2022-10-24T18:49:32.437Z,31.41
2022-10-24T18:52:09.074Z,31.42
2022-10-24T18:54:49.242Z,31.38
2022-10-24T18:57:32.230Z,31.38
2022-10-24T19:00:03.446Z,31.34
2022-10-24T19:03:00.123Z,31.36
2022-10-24T19:05:53.796Z,31.34
2022-10-24T19:08:28.507Z,31.38
2022-10-24T19:11:00.082Z,31.33
2022-10-24T19:13:31.292Z,31.34
2022-10-24T19:16:05.737Z,31.34
2022-10-24T19:18:39.663Z,31.35
2022-10-24T19:21:10.664Z,31.35
2022-10-24T19:23:41.669Z,31.33
2022-10-24T19:26:15.085Z,31.37
2022-10-24T19:28:46.169Z,31.35
2022-10-24T19:31:18.359Z,31.32
2022-10-24T19:33:49.321Z,31.33
2022-10-24T19:36:20.135Z,31.31
2022-10-24T19:38:50.731Z,31.32
2022-10-24T19:41:21.739Z,31.29
2022-10-24T19:43:53.507Z,31.29
2022-10-24T19:46:24.606Z,31.27
2022-10-24T19:48:55.732Z,31.27
2022-10-24T19:51:27.950Z,31.30
2022-10-24T19:53:59.687Z,31.26
2022-10-24T19:56:32.088Z,31.27
2022-10-24T19:59:03.058Z,31.28
2022-10-24T20:01:34.144Z,31.26
2022-10-24T20:04:05.095Z,31.27
2022-10-24T20:06:36.236Z,31.31
2022-10-24T20:09:07.394Z,31.27
2022-10-24T20:11:38.054Z,31.29
2022-10-24T20:14:08.779Z,31.30
2022-10-24T20:16:39.620Z,31.28
2022-10-24T20:19:10.364Z,31.25
2022-10-24T20:21:41.332Z,31.25
2022-10-24T20:24:12.969Z,31.28
2022-10-24T20:26:44.202Z,31.24
2022-10-24T20:29:17.794Z,31.25
2022-10-24T20:31:50.081Z,31.26
2022-10-24T20:34:20.980Z,31.24
2022-10-24T20:36:51.757Z,31.27
2022-10-24T20:39:25.873Z,31.23
2022-10-24T20:41:56.669Z,31.23
2022-10-24T20:44:27.595Z,31.25
2022-10-24T20:46:59.337Z,31.24
2022-10-24T20:49:30.146Z,31.25
2022-10-24T20:52:01.052Z,31.24
2022-10-24T20:54:32.061Z,31.23
2022-10-24T20:57:02.825Z,31.22
2022-10-24T20:59:33.756Z,31.22
2022-10-24T21:02:04.615Z,31.23
2022-10-24T21:04:35.274Z,31.22
2022-10-24T21:07:06.155Z,31.23
2022-10-24T21:09:37.778Z,31.20
2022-10-24T21:12:08.893Z,31.23
2022-10-24T21:14:39.506Z,31.22
2022-10-24T21:17:10.371Z,31.20
2022-10-24T21:19:41.499Z,31.22
2022-10-24T21:22:12.258Z,31.20
2022-10-24T21:24:43.074Z,31.18
2022-10-24T21:27:13.929Z,31.20
2022-10-24T21:29:44.670Z,31.19
2022-10-24T21:32:15.796Z,31.18
2022-10-24T21:34:46.548Z,31.16
2022-10-24T21:37:17.262Z,31.15
2022-10-24T21:39:48.043Z,31.13
2022-10-24T21:42:18.967Z,31.14
2022-10-24T21:44:49.839Z,31.12
2022-10-24T21:47:20.685Z,31.09
2022-10-24T21:49:51.597Z,31.08
2022-10-24T21:52:22.481Z,31.06
2022-10-24T21:54:53.367Z,31.10
2022-10-24T21:57:24.278Z,31.09
2022-10-24T21:59:54.991Z,31.13
2022-10-24T22:02:26.011Z,31.06
2022-10-24T22:04:56.898Z,31.06
2022-10-24T22:07:28.157Z,31.04
2022-10-24T22:09:58.577Z,31.04
2022-10-24T22:12:29.741Z,31.06
2022-10-24T22:15:00.625Z,31.04
2022-10-24T22:17:31.235Z,31.09
2022-10-24T22:20:02.138Z,31.07
2022-10-24T22:22:32.716Z,31.08
2022-10-24T22:25:03.452Z,31.12
2022-10-24T22:27:34.310Z,31.10
2022-10-24T22:30:05.070Z,31.12
2022-10-24T22:32:36.057Z,31.12
2022-10-24T22:35:07.278Z,31.11
2022-10-24T22:37:38.926Z,31.11
2022-10-24T22:40:31.226Z,31.11
2022-10-24T22:43:02.499Z,31.10
2022-10-24T22:45:33.630Z,31.11
2022-10-24T22:48:12.953Z,31.12
2022-10-24T22:50:52.038Z,31.11
2022-10-24T22:53:30.145Z,31.09
2022-10-24T22:56:25.585Z,31.12
2022-10-24T23:00:05.215Z,31.09
2022-10-24T23:02:40.717Z,31.08
2022-10-24T23:05:11.672Z,30.95
2022-10-24T23:07:50.323Z,30.88
2022-10-24T23:10:24.459Z,30.80
2022-10-24T23:12:56.075Z,30.93
2022-10-24T23:15:27.468Z,30.91
2022-10-24T23:17:57.939Z,30.91
2022-10-24T23:21:09.855Z,30.96
2022-10-24T23:23:40.955Z,30.95
2022-10-24T23:26:15.653Z,30.90
2022-10-24T23:28:58.436Z,30.94
2022-10-24T23:31:29.618Z,30.93
2022-10-24T23:34:00.565Z,30.88
2022-10-24T23:36:31.708Z,30.93
2022-10-24T23:39:02.884Z,30.94
2022-10-24T23:41:34.209Z,30.93
2022-10-24T23:44:04.851Z,30.91
2022-10-24T23:46:48.094Z,30.94
2022-10-24T23:49:43.556Z,30.91
2022-10-24T23:52:29.206Z,30.93
2022-10-24T23:55:00.295Z,30.91
2022-10-24T23:57:30.953Z,30.93
